createdAt,value
2019-02-18T00:00:02.653Z,40.83
2019-02-18T00:02:31.256Z,41.14
2019-02-18T00:04:59.872Z,40.36
2019-02-18T00:07:28.446Z,40.30
2019-02-18T00:09:57.232Z,40.49
2019-02-18T00:12:26.033Z,40.82
2019-02-18T00:14:55.059Z,40.93
2019-02-18T00:17:23.970Z,41.60
2019-02-18T00:19:52.840Z,41.29
2019-02-18T00:22:21.851Z,41.66
2019-02-18T00:24:50.629Z,42.29
2019-02-18T00:27:19.426Z,42.42
2019-02-18T00:29:48.019Z,42.84
2019-02-18T00:32:16.597Z,42.97
2019-02-18T00:34:45.187Z,43.91
2019-02-18T00:37:13.784Z,43.37
2019-02-18T00:39:42.372Z,43.62
2019-02-18T00:42:10.937Z,43.68
2019-02-18T00:44:39.564Z,43.58
2019-02-18T00:47:08.386Z,43.77
2019-02-18T00:49:37.201Z,44.46
2019-02-18T00:52:05.773Z,44.52
2019-02-18T00:54:34.613Z,44.22
2019-02-18T00:57:03.182Z,44.51
2019-02-18T00:59:31.773Z,44.76
2019-02-18T01:02:00.593Z,45.00
2019-02-18T01:04:29.194Z,45.56
2019-02-18T01:06:58.416Z,45.14
2019-02-18T01:09:26.981Z,45.41
2019-02-18T01:11:55.553Z,45.80
2019-02-18T01:14:24.188Z,45.52
2019-02-18T01:16:52.782Z,46.16
2019-02-18T01:19:21.537Z,46.68
2019-02-18T01:21:50.360Z,45.84
2019-02-18T01:24:18.962Z,45.92
2019-02-18T01:26:47.542Z,46.14
2019-02-18T01:29:16.360Z,46.15
2019-02-18T01:31:44.935Z,45.82
2019-02-18T01:34:13.822Z,45.64
2019-02-18T01:36:42.370Z,45.48
2019-02-18T01:39:10.966Z,45.45
2019-02-18T01:41:39.539Z,45.73
2019-02-18T01:44:08.136Z,45.65
2019-02-18T01:46:36.707Z,46.08
2019-02-18T01:49:05.645Z,46.88
2019-02-18T01:51:34.224Z,46.17
2019-02-18T01:54:02.822Z,45.67
2019-02-18T01:56:31.391Z,45.56
2019-02-18T01:59:00.220Z,45.91
2019-02-18T02:01:28.796Z,45.83
2019-02-18T02:03:57.426Z,45.67
2019-02-18T02:06:25.992Z,45.64
2019-02-18T02:08:54.562Z,45.65
2019-02-18T02:11:23.146Z,45.92
2019-02-18T02:13:52.000Z,45.20
2019-02-18T02:16:20.825Z,44.87
2019-02-18T02:18:49.417Z,44.51
2019-02-18T02:21:17.997Z,45.02
2019-02-18T02:23:46.616Z,46.12
2019-02-18T02:26:15.176Z,46.50
2019-02-18T02:28:43.766Z,46.27
2019-02-18T02:31:12.795Z,46.26
2019-02-18T02:33:41.390Z,45.81
2019-02-18T02:36:10.446Z,46.32
2019-02-18T02:38:39.030Z,46.02
2019-02-18T02:41:07.612Z,46.44
2019-02-18T02:43:36.199Z,47.15
2019-02-18T02:46:04.797Z,46.33
2019-02-18T02:48:33.364Z,46.22
2019-02-18T02:51:01.967Z,46.56
2019-02-18T02:53:30.534Z,46.76
2019-02-18T02:55:59.352Z,47.24
2019-02-18T02:58:27.943Z,47.09
2019-02-18T03:00:56.518Z,47.43
2019-02-18T03:03:25.113Z,46.91
2019-02-18T03:05:53.709Z,47.03
2019-02-18T03:08:22.295Z,47.13
2019-02-18T03:10:50.857Z,47.04
2019-02-18T03:13:19.464Z,46.89
2019-02-18T03:15:48.344Z,46.72
2019-02-18T03:18:16.995Z,47.08
2019-02-18T03:20:45.651Z,47.24
2019-02-18T03:23:14.473Z,46.80
2019-02-18T03:25:43.992Z,46.43
2019-02-18T03:28:33.325Z,46.25
2019-02-18T03:31:11.490Z,46.86
2019-02-18T03:33:49.215Z,46.58
2019-02-18T03:36:17.816Z,46.60
2019-02-18T03:38:46.666Z,46.43
2019-02-18T03:41:15.513Z,46.58
2019-02-18T03:43:44.203Z,46.36
2019-02-18T03:46:12.839Z,46.21
2019-02-18T03:48:41.400Z,46.47
2019-02-18T03:51:10.002Z,46.63
2019-02-18T03:53:38.566Z,46.42
2019-02-18T03:56:07.143Z,46.10
2019-02-18T03:58:35.715Z,46.10
2019-02-18T04:01:04.406Z,45.80
2019-02-18T04:03:32.966Z,45.89
2019-02-18T04:06:01.571Z,45.74
2019-02-18T04:08:30.152Z,45.92
2019-02-18T04:10:58.743Z,45.49
2019-02-18T04:13:27.329Z,45.43
2019-02-18T04:15:56.169Z,45.58
2019-02-18T04:18:25.058Z,45.47
2019-02-18T04:20:53.631Z,45.54
2019-02-18T04:23:22.210Z,45.48
2019-02-18T04:25:51.034Z,45.24
2019-02-18T04:28:19.602Z,46.29
2019-02-18T04:30:48.188Z,46.41
2019-02-18T04:33:16.784Z,45.87
2019-02-18T04:35:45.394Z,45.65
2019-02-18T04:38:14.231Z,45.03
2019-02-18T04:40:42.898Z,45.14
2019-02-18T04:43:11.483Z,45.48
2019-02-18T04:45:40.069Z,45.05
2019-02-18T04:48:08.635Z,45.52
2019-02-18T04:50:37.467Z,45.57
2019-02-18T04:53:06.310Z,45.56
2019-02-18T04:55:34.869Z,45.29
2019-02-18T04:58:06.027Z,45.00
2019-02-18T05:00:33.740Z,45.46
2019-02-18T05:03:02.331Z,44.83
2019-02-18T05:05:31.389Z,44.58
2019-02-18T05:07:59.986Z,44.95
2019-02-18T05:10:28.578Z,44.93
2019-02-18T05:12:57.158Z,44.71
2019-02-18T05:15:25.803Z,45.12
2019-02-18T05:17:54.533Z,45.27
2019-02-18T05:20:23.110Z,45.35
2019-02-18T05:22:51.686Z,45.51
2019-02-18T05:25:20.496Z,45.29
2019-02-18T05:27:49.641Z,45.97
2019-02-18T05:30:18.246Z,45.25
2019-02-18T05:32:48.581Z,45.48
2019-02-18T05:35:17.223Z,45.72
2019-02-18T05:37:45.897Z,45.98
2019-02-18T05:40:14.524Z,46.30
2019-02-18T05:42:43.163Z,46.30
2019-02-18T05:45:11.955Z,45.56
2019-02-18T05:47:40.540Z,45.93
2019-02-18T05:50:09.481Z,45.53
2019-02-18T05:52:38.319Z,45.67
2019-02-18T05:55:07.245Z,45.66
2019-02-18T05:57:36.107Z,46.64
2019-02-18T06:00:06.019Z,45.96
2019-02-18T06:02:34.943Z,46.04
2019-02-18T06:05:03.585Z,46.17
2019-02-18T06:07:32.306Z,46.21
2019-02-18T06:10:01.295Z,45.98
2019-02-18T06:12:30.014Z,45.97
2019-02-18T06:14:58.854Z,46.71
2019-02-18T06:17:27.662Z,46.77
2019-02-18T06:19:56.540Z,46.63
2019-02-18T06:22:25.291Z,47.21
2019-02-18T06:24:54.148Z,47.37
2019-02-18T06:27:23.284Z,47.73
2019-02-18T06:29:51.970Z,48.29
2019-02-18T06:32:20.790Z,47.82
2019-02-18T06:34:49.774Z,47.99
2019-02-18T06:37:18.362Z,48.44
2019-02-18T06:39:46.937Z,48.58
2019-02-18T06:42:15.513Z,48.42
2019-02-18T06:44:58.849Z,48.69
2019-02-18T06:47:28.957Z,49.62
2019-02-18T06:49:57.552Z,50.39
2019-02-18T06:52:26.232Z,49.03
2019-02-18T06:54:54.836Z,49.07
2019-02-18T06:57:35.025Z,48.62
2019-02-18T07:00:23.297Z,49.14
2019-02-18T07:03:06.917Z,49.29
2019-02-18T07:05:41.837Z,49.09
2019-02-18T07:08:22.807Z,48.90
2019-02-18T07:10:56.807Z,48.91
2019-02-18T07:13:25.419Z,49.12
2019-02-18T07:15:54.137Z,49.63
2019-02-18T07:18:22.856Z,49.14
2019-02-18T07:20:51.768Z,48.56
2019-02-18T07:23:20.358Z,48.57
2019-02-18T07:25:49.237Z,48.95
2019-02-18T07:28:18.090Z,48.81
2019-02-18T07:30:47.063Z,48.06
2019-02-18T07:33:15.673Z,48.13
2019-02-18T07:35:44.280Z,48.50
2019-02-18T07:38:12.883Z,48.02
2019-02-18T07:40:41.703Z,48.57
2019-02-18T07:43:10.462Z,48.32
2019-02-18T07:45:39.087Z,49.21
2019-02-18T07:48:07.886Z,47.79
2019-02-18T07:50:37.177Z,47.67
2019-02-18T07:53:06.224Z,47.67
2019-02-18T07:55:35.374Z,47.46
2019-02-18T07:58:03.946Z,46.67
2019-02-18T08:00:32.562Z,46.96
2019-02-18T08:03:01.373Z,47.81
2019-02-18T08:05:30.035Z,47.79
2019-02-18T08:07:58.632Z,47.63
2019-02-18T08:10:27.472Z,47.40
2019-02-18T08:12:56.088Z,45.33
2019-02-18T08:15:24.682Z,44.38
2019-02-18T08:17:53.277Z,43.96
2019-02-18T08:20:21.846Z,43.11
2019-02-18T08:22:50.419Z,42.26
2019-02-18T08:25:19.012Z,42.42
2019-02-18T08:27:47.604Z,41.09
2019-02-18T08:30:16.288Z,40.67
2019-02-18T08:32:44.857Z,41.02
2019-02-18T08:35:13.446Z,40.89
2019-02-18T08:37:42.048Z,41.21
2019-02-18T08:40:10.771Z,40.69
2019-02-18T08:42:39.369Z,39.96
2019-02-18T08:45:09.661Z,40.03
2019-02-18T08:47:38.523Z,39.73
2019-02-18T08:50:08.894Z,37.40
2019-02-18T08:52:37.554Z,37.40
2019-02-18T08:55:07.828Z,35.79
2019-02-18T08:57:36.404Z,34.36
2019-02-18T09:00:05.942Z,33.11
2019-02-18T09:02:34.528Z,32.48
2019-02-18T09:05:03.127Z,31.48
2019-02-18T09:07:31.951Z,27.18
2019-02-18T09:10:00.563Z,25.30
2019-02-18T09:12:29.177Z,23.02
2019-02-18T09:14:57.778Z,22.70
2019-02-18T09:17:26.407Z,22.23
2019-02-18T09:19:55.004Z,21.08
2019-02-18T09:22:35.971Z,21.61
2019-02-18T09:25:14.574Z,19.65
2019-02-18T09:27:43.167Z,21.61
2019-02-18T09:30:11.885Z,22.44
2019-02-18T09:32:40.722Z,21.94
2019-02-18T09:35:09.357Z,21.57
2019-02-18T09:37:37.965Z,20.15
2019-02-18T09:40:06.983Z,20.97
2019-02-18T09:42:35.607Z,19.42
2019-02-18T09:45:04.312Z,17.97
2019-02-18T09:47:33.141Z,17.41
2019-02-18T09:50:01.740Z,16.16
2019-02-18T09:52:30.341Z,18.16
2019-02-18T09:54:58.974Z,18.98
2019-02-18T09:57:27.569Z,18.30
2019-02-18T09:59:56.254Z,17.79
2019-02-18T10:02:25.077Z,16.86
2019-02-18T10:04:53.653Z,16.41
2019-02-18T10:07:22.323Z,14.57
2019-02-18T10:09:50.915Z,17.10
2019-02-18T10:12:19.493Z,15.84
2019-02-18T10:14:48.321Z,15.24
2019-02-18T10:17:16.924Z,16.07
2019-02-18T10:19:45.512Z,16.25
2019-02-18T10:22:14.119Z,15.91
2019-02-18T10:27:13.063Z,14.47
2019-02-18T10:29:41.613Z,15.11
2019-02-18T10:32:10.261Z,14.85
2019-02-18T10:34:38.924Z,15.46
2019-02-18T10:37:07.525Z,14.58
2019-02-18T10:39:36.365Z,14.52
2019-02-18T10:42:05.286Z,15.91
2019-02-18T10:44:33.890Z,14.95
2019-02-18T10:47:02.460Z,15.37
2019-02-18T10:49:31.373Z,15.04
2019-02-18T10:51:59.967Z,15.59
2019-02-18T10:54:28.552Z,15.73
2019-02-18T10:56:57.142Z,16.75
2019-02-18T10:59:25.804Z,18.02
2019-02-18T11:01:55.004Z,19.09
2019-02-18T11:04:23.846Z,20.17
2019-02-18T11:06:52.459Z,20.85
2019-02-18T11:09:21.529Z,20.96
2019-02-18T11:11:50.114Z,21.67
2019-02-18T11:14:18.694Z,21.53
2019-02-18T11:16:47.293Z,21.15
2019-02-18T11:19:17.565Z,20.95
2019-02-18T11:21:46.388Z,22.09
2019-02-18T11:24:15.267Z,20.30
2019-02-18T11:26:43.943Z,20.14
2019-02-18T11:29:12.748Z,20.78
2019-02-18T11:31:41.365Z,20.68
2019-02-18T11:34:09.951Z,20.35
2019-02-18T11:36:38.540Z,20.58
2019-02-18T11:39:11.758Z,19.81
2019-02-18T11:41:40.357Z,19.78
2019-02-18T11:44:08.971Z,20.09
2019-02-18T11:46:37.586Z,20.12
2019-02-18T11:49:06.299Z,19.92
2019-02-18T11:51:34.877Z,20.98
2019-02-18T11:54:03.711Z,21.28
2019-02-18T11:56:32.911Z,21.55
2019-02-18T11:59:02.397Z,21.23
2019-02-18T12:01:31.085Z,21.68
2019-02-18T12:03:59.758Z,21.16
2019-02-18T12:06:28.446Z,20.86
2019-02-18T12:08:57.157Z,19.75
2019-02-18T12:11:25.762Z,17.84
2019-02-18T12:13:54.495Z,17.12
2019-02-18T12:16:23.087Z,16.80
2019-02-18T12:18:51.928Z,16.38
2019-02-18T12:21:20.765Z,16.67
2019-02-18T12:23:49.364Z,16.34
2019-02-18T12:26:18.010Z,16.49
2019-02-18T12:28:46.629Z,15.91
2019-02-18T12:31:15.228Z,16.10
2019-02-18T12:33:43.870Z,15.58
2019-02-18T12:36:15.472Z,14.83
2019-02-18T12:38:44.068Z,15.36
2019-02-18T12:41:13.537Z,16.17
2019-02-18T12:43:42.726Z,14.42
2019-02-18T12:46:15.780Z,18.73
2019-02-18T12:48:42.498Z,18.95
2019-02-18T12:51:11.109Z,18.56
2019-02-18T12:53:39.715Z,19.18
2019-02-18T12:56:08.718Z,22.40
2019-02-18T12:58:37.387Z,21.51
2019-02-18T13:01:07.059Z,20.86
2019-02-18T13:03:35.634Z,20.39
2019-02-18T13:06:04.506Z,20.73
2019-02-18T13:08:33.119Z,20.04
2019-02-18T13:11:01.738Z,20.61
2019-02-18T13:13:31.398Z,20.88
2019-02-18T13:16:00.029Z,20.42
2019-02-18T13:18:29.197Z,20.06
2019-02-18T13:20:57.802Z,20.18
2019-02-18T13:23:26.387Z,19.95
2019-02-18T13:25:55.013Z,20.68
2019-02-18T13:28:23.586Z,20.54
2019-02-18T13:30:52.191Z,22.08
2019-02-18T13:33:20.826Z,24.54
2019-02-18T13:35:49.670Z,25.60
2019-02-18T13:38:18.487Z,28.09
2019-02-18T13:40:47.071Z,29.97
2019-02-18T13:43:15.787Z,28.68
2019-02-18T13:45:44.372Z,28.84
2019-02-18T13:48:12.984Z,30.24
2019-02-18T13:50:41.824Z,31.24
2019-02-18T13:53:10.427Z,31.84
2019-02-18T13:55:39.271Z,31.95
2019-02-18T13:58:07.846Z,32.66
2019-02-18T14:00:36.553Z,31.95
2019-02-18T14:03:05.121Z,32.12
2019-02-18T14:05:34.043Z,33.32
2019-02-18T14:08:02.843Z,33.71
2019-02-18T14:10:31.450Z,33.59
2019-02-18T14:13:00.276Z,33.92
2019-02-18T14:15:28.943Z,34.94
2019-02-18T14:17:59.528Z,35.04
2019-02-18T14:20:28.123Z,34.79
2019-02-18T14:22:57.268Z,34.79
2019-02-18T14:25:25.910Z,34.13
2019-02-18T14:27:54.487Z,34.41
2019-02-18T14:30:23.071Z,34.14
2019-02-18T14:32:51.769Z,34.66
2019-02-18T14:35:20.373Z,34.17
2019-02-18T14:37:49.923Z,33.80
2019-02-18T14:40:20.152Z,35.21
2019-02-18T14:42:48.855Z,34.77
2019-02-18T14:45:17.585Z,35.22
2019-02-18T14:47:46.293Z,35.90
2019-02-18T14:50:17.449Z,35.70
2019-02-18T14:52:46.636Z,36.17
2019-02-18T14:55:15.342Z,35.46
2019-02-18T14:57:44.044Z,35.98
2019-02-18T15:00:17.898Z,37.68
2019-02-18T15:02:46.763Z,37.36
2019-02-18T15:05:15.653Z,35.82
2019-02-18T15:07:44.616Z,36.73
2019-02-18T15:10:14.685Z,37.51
2019-02-18T15:12:43.495Z,38.04
2019-02-18T15:15:12.128Z,37.74
2019-02-18T15:17:40.787Z,36.63
2019-02-18T15:20:11.519Z,37.73
2019-02-18T15:22:40.146Z,37.47
2019-02-18T15:25:08.936Z,37.31
2019-02-18T15:27:37.987Z,38.70
2019-02-18T15:30:08.139Z,37.62
2019-02-18T15:32:36.724Z,37.53
2019-02-18T15:35:05.599Z,37.20
2019-02-18T15:37:34.580Z,36.76
2019-02-18T15:40:03.896Z,36.54
2019-02-18T15:42:32.500Z,37.71
2019-02-18T15:45:01.167Z,37.58
2019-02-18T15:47:30.018Z,37.79
2019-02-18T15:49:59.073Z,38.31
2019-02-18T15:52:27.957Z,38.16
2019-02-18T15:54:56.830Z,38.36
2019-02-18T15:57:25.490Z,38.88
2019-02-18T15:59:54.437Z,37.79
2019-02-18T16:02:23.594Z,39.38
2019-02-18T16:04:52.172Z,39.40
2019-02-18T16:07:21.146Z,40.27
2019-02-18T16:09:49.730Z,40.75
2019-02-18T16:12:18.353Z,40.36
2019-02-18T16:14:47.413Z,41.50
2019-02-18T16:17:16.010Z,41.22
2019-02-18T16:19:44.919Z,41.48
2019-02-18T16:22:13.638Z,41.66
2019-02-18T16:24:42.711Z,41.67
2019-02-18T16:27:11.583Z,42.32
2019-02-18T16:29:40.189Z,41.96
2019-02-18T16:32:08.907Z,41.18
2019-02-18T16:34:38.116Z,40.51
2019-02-18T16:37:07.081Z,40.63
2019-02-18T16:39:35.913Z,41.78
2019-02-18T16:42:05.129Z,42.09
2019-02-18T16:44:33.847Z,42.09
2019-02-18T16:47:02.450Z,42.33
2019-02-18T16:49:31.378Z,42.02
2019-02-18T16:51:59.937Z,42.18
2019-02-18T16:54:28.674Z,40.85
2019-02-18T16:56:57.541Z,41.20
2019-02-18T16:59:30.761Z,42.85
2019-02-18T17:01:59.474Z,42.45
2019-02-18T17:04:28.026Z,42.52
2019-02-18T17:06:56.878Z,42.20
2019-02-18T17:09:25.489Z,41.53
2019-02-18T17:11:54.307Z,41.18
2019-02-18T17:14:22.894Z,41.92
2019-02-18T17:16:51.736Z,42.84
2019-02-18T17:19:20.447Z,42.56
2019-02-18T17:21:49.260Z,42.34
2019-02-18T17:24:18.138Z,42.25
2019-02-18T17:26:46.746Z,42.26
2019-02-18T17:29:15.377Z,41.26
2019-02-18T17:31:44.003Z,42.47
2019-02-18T17:34:12.741Z,41.72
2019-02-18T17:36:41.315Z,42.22
2019-02-18T17:39:10.174Z,41.16
2019-02-18T17:41:38.785Z,41.56
2019-02-18T17:44:07.376Z,41.34
2019-02-18T17:46:35.965Z,41.62
2019-02-18T17:49:05.047Z,41.63
2019-02-18T17:51:36.772Z,41.53
2019-02-18T17:54:05.397Z,41.74
2019-02-18T17:56:34.268Z,41.47
2019-02-18T17:59:02.888Z,40.88
2019-02-18T18:01:31.499Z,41.83
2019-02-18T18:04:00.126Z,41.83
2019-02-18T18:06:28.735Z,42.34
2019-02-18T18:08:57.503Z,40.46
2019-02-18T18:11:26.371Z,42.15
2019-02-18T18:13:55.004Z,42.04
2019-02-18T18:16:23.846Z,42.73
2019-02-18T18:18:52.771Z,41.74
2019-02-18T18:21:21.595Z,41.74
2019-02-18T18:23:50.411Z,40.60
2019-02-18T18:26:19.007Z,39.83
2019-02-18T18:28:47.626Z,41.50
2019-02-18T18:31:16.222Z,40.38
2019-02-18T18:33:45.043Z,40.99
2019-02-18T18:36:13.719Z,39.83
2019-02-18T18:38:42.336Z,40.50
2019-02-18T18:41:11.000Z,40.27
2019-02-18T18:43:39.599Z,40.73
2019-02-18T18:46:08.275Z,41.22
2019-02-18T18:48:36.983Z,41.22
2019-02-18T18:51:05.585Z,40.98
2019-02-18T18:53:34.465Z,41.37
2019-02-18T18:56:03.268Z,40.74
2019-02-18T18:58:32.052Z,42.73
2019-02-18T19:01:00.904Z,42.73
2019-02-18T19:03:29.510Z,41.85
2019-02-18T19:05:58.288Z,41.85
2019-02-18T19:08:26.927Z,43.30
2019-02-18T19:10:55.899Z,44.74
2019-02-18T19:13:24.740Z,44.74
2019-02-18T19:15:53.374Z,44.05
2019-02-18T19:18:22.279Z,43.49
2019-02-18T19:20:50.918Z,45.17
2019-02-18T19:23:19.543Z,43.33
2019-02-18T19:25:48.418Z,42.79
2019-02-18T19:28:17.043Z,44.83
2019-02-18T19:30:45.887Z,41.66
2019-02-18T19:33:14.963Z,41.86
2019-02-18T19:35:43.545Z,41.86
2019-02-18T19:38:12.148Z,45.35
2019-02-18T19:40:40.730Z,45.35
2019-02-18T19:43:09.662Z,44.07
2019-02-18T19:45:38.424Z,44.07
2019-02-18T19:48:07.128Z,44.75
2019-02-18T19:50:35.988Z,44.50
2019-02-18T19:53:04.904Z,44.50
2019-02-18T19:55:33.458Z,44.12
2019-02-18T19:58:02.295Z,43.63
2019-02-18T20:00:31.118Z,42.56
2019-02-18T20:02:59.735Z,42.31
2019-02-18T20:05:28.393Z,42.31
2019-02-18T20:07:57.590Z,42.33
2019-02-18T20:10:26.633Z,42.33
2019-02-18T20:12:55.716Z,40.89
2019-02-18T20:15:24.320Z,40.89
2019-02-18T20:17:52.913Z,40.15
2019-02-18T20:20:21.766Z,41.50
2019-02-18T20:22:50.372Z,40.95
2019-02-18T20:25:18.978Z,41.54
2019-02-18T20:27:48.091Z,42.17
2019-02-18T20:30:16.768Z,41.31
2019-02-18T20:32:45.522Z,41.31
2019-02-18T20:35:14.520Z,41.97
2019-02-18T20:37:45.051Z,41.62
2019-02-18T20:40:13.730Z,41.62
2019-02-18T20:42:43.340Z,42.82
2019-02-18T20:45:12.263Z,42.63
2019-02-18T20:47:41.554Z,42.13
2019-02-18T20:50:10.544Z,42.13
2019-02-18T20:52:39.544Z,42.40
2019-02-18T20:55:09.693Z,42.40
2019-02-18T20:57:38.555Z,42.45
2019-02-18T21:02:38.432Z,42.36
2019-02-18T21:05:07.086Z,42.36
2019-02-18T21:07:36.004Z,42.43
2019-02-18T21:10:04.969Z,43.31
2019-02-18T21:12:33.691Z,44.16
2019-02-18T21:15:02.405Z,44.26
2019-02-18T21:17:31.045Z,44.26
2019-02-18T21:20:02.767Z,42.94
2019-02-18T21:22:31.385Z,43.67
2019-02-18T21:24:59.971Z,43.67
2019-02-18T23:59:18.058Z,47.12
